createdAt,value
2018-07-12T04:50:47.317Z,96968.47
2018-07-12T04:51:54.179Z,96971.07
2018-07-12T04:52:58.357Z,96966.34
2018-07-12T04:54:02.562Z,96969.66
2018-07-12T04:55:07.725Z,96968.16
2018-07-12T04:56:12.944Z,96968.63
2018-07-12T04:57:17.163Z,96972.30
2018-07-12T04:58:21.517Z,96973.31
2018-07-12T04:59:26.584Z,96975.37
2018-07-12T05:00:31.381Z,96986.73
2018-07-12T05:01:37.658Z,96974.53
2018-07-12T05:02:42.508Z,96982.77
2018-07-12T05:03:47.509Z,96974.73
2018-07-12T05:04:51.836Z,96972.78
2018-07-12T05:05:56.046Z,96970.60
2018-07-12T05:07:00.192Z,96976.35
2018-07-12T05:08:05.404Z,96975.98
2018-07-12T05:09:11.425Z,96974.27
2018-07-12T05:10:15.559Z,96967.57
2018-07-12T05:11:20.010Z,96974.47
2018-07-12T05:12:24.183Z,96974.23
2018-07-12T05:13:28.379Z,96971.39
2018-07-12T05:14:32.634Z,96975.27
2018-07-12T05:15:37.035Z,96972.83
2018-07-12T05:16:41.223Z,96975.85
2018-07-12T05:17:45.864Z,96977.39
2018-07-12T05:18:50.244Z,96977.34
2018-07-12T05:19:54.562Z,96980.34
2018-07-12T05:20:59.064Z,96985.52
2018-07-12T05:22:03.556Z,96988.17
2018-07-12T05:23:07.830Z,96991.25
2018-07-12T05:24:12.087Z,96984.33
2018-07-12T05:25:16.433Z,96993.69
2018-07-12T05:26:21.035Z,96996.88
2018-07-12T05:27:25.307Z,96992.05
2018-07-12T05:28:29.946Z,96993.89
2018-07-12T05:29:38.288Z,96995.98
2018-07-12T05:30:42.627Z,96993.72
2018-07-12T05:31:49.045Z,96989.38
2018-07-12T05:32:53.524Z,96990.73
2018-07-12T05:33:58.889Z,96991.20
2018-07-12T05:35:04.817Z,96996.11
2018-07-12T05:36:20.660Z,96989.28
2018-07-12T05:37:27.020Z,96992.81
2018-07-12T05:38:33.754Z,96995.33
2018-07-12T05:39:39.877Z,96993.24
2018-07-12T05:40:47.898Z,96986.51
2018-07-12T05:41:54.736Z,96991.37
2018-07-12T05:43:02.039Z,96988.39
2018-07-12T05:44:08.358Z,96990.20
2018-07-12T05:45:14.554Z,97000.56
2018-07-12T05:46:22.445Z,96995.59
2018-07-12T05:47:31.495Z,97000.11
2018-07-12T05:48:37.867Z,96993.02
2018-07-12T05:49:44.188Z,96991.23
2018-07-12T05:50:51.277Z,96996.58
2018-07-12T05:51:58.527Z,96990.58
2018-07-12T05:53:04.895Z,96997.34
2018-07-12T05:54:11.971Z,96995.45
2018-07-12T05:55:18.967Z,97003.41
2018-07-12T05:56:26.444Z,97003.45
2018-07-12T05:57:32.847Z,96995.73
2018-07-12T05:58:39.212Z,97000.83
2018-07-12T05:59:45.473Z,97001.05
2018-07-12T06:00:52.368Z,97001.00
2018-07-12T06:02:10.545Z,97000.48
2018-07-12T06:03:16.769Z,97002.47
2018-07-12T06:04:23.663Z,97003.92
2018-07-12T06:05:30.429Z,97006.06
2018-07-12T06:06:40.186Z,97006.59
2018-07-12T06:07:46.477Z,97012.28
2018-07-12T06:08:52.666Z,97005.41
2018-07-12T06:10:00.709Z,97011.79
2018-07-12T06:11:09.020Z,97006.61
2018-07-12T06:12:15.120Z,97009.77
2018-07-12T06:13:22.222Z,97008.39
2018-07-12T06:14:29.325Z,97009.53
2018-07-12T06:15:36.802Z,97010.34
2018-07-12T06:16:44.269Z,97007.77
2018-07-12T06:17:50.374Z,97010.20
2018-07-12T06:18:58.304Z,97012.94
2018-07-12T06:20:11.059Z,97015.09
2018-07-12T06:21:18.956Z,97023.48
2018-07-12T06:22:26.828Z,97021.44
2018-07-12T06:23:34.696Z,97020.06
2018-07-12T06:24:41.989Z,97029.55
2018-07-12T06:25:48.933Z,97031.09
2018-07-12T06:26:55.263Z,97040.89
2018-07-12T06:28:03.284Z,97043.09
2018-07-12T06:29:09.553Z,97033.41
2018-07-12T06:30:16.961Z,97034.87
2018-07-12T06:31:23.652Z,97037.60
2018-07-12T06:32:29.989Z,97030.95
2018-07-12T06:33:37.854Z,97036.44
2018-07-12T06:34:46.753Z,97037.25
2018-07-12T06:35:54.446Z,97035.77
2018-07-12T06:37:01.965Z,97035.73
2018-07-12T06:38:09.795Z,97030.06
2018-07-12T06:39:17.175Z,97035.47
2018-07-12T06:40:24.805Z,97032.12
2018-07-12T06:41:30.991Z,97027.64
2018-07-12T06:42:42.909Z,97027.77
2018-07-12T07:20:37.122Z,97043.22
2018-07-12T07:21:48.480Z,97049.64
2018-07-12T07:22:59.701Z,97048.77
2018-07-12T07:24:11.326Z,97045.12
2018-07-12T07:25:22.542Z,97043.03
2018-07-12T07:26:33.928Z,97050.50
2018-07-12T07:27:46.234Z,97044.34
2018-07-12T07:28:57.880Z,97047.75
2018-07-12T07:30:09.345Z,97044.80
2018-07-12T07:31:20.466Z,97053.05
2018-07-12T07:32:34.956Z,97057.26
2018-07-12T07:33:46.578Z,97056.34
2018-07-12T07:34:59.500Z,97049.63
2018-07-12T07:36:10.576Z,97051.91
2018-07-12T07:37:22.666Z,97060.64
2018-07-12T07:38:34.271Z,97050.98
2018-07-12T07:39:46.066Z,97055.59
2018-07-12T07:40:58.144Z,97050.58
2018-07-12T07:42:10.298Z,97051.47
2018-07-12T07:43:21.831Z,97040.09
2018-07-12T07:44:33.140Z,97051.75
2018-07-12T07:45:46.364Z,97045.94
2018-07-12T07:46:58.558Z,97051.16
2018-07-12T07:48:09.705Z,97045.80
2018-07-12T07:49:21.142Z,97048.50
2018-07-12T07:50:36.396Z,97048.20
2018-07-12T07:51:47.698Z,97053.88
2018-07-12T07:52:59.222Z,97048.67
2018-07-12T07:54:11.638Z,97049.94
2018-07-12T07:55:23.022Z,97044.89
2018-07-12T07:56:37.495Z,97045.09
2018-07-12T07:57:48.940Z,97047.87
2018-07-12T07:59:00.200Z,97043.72
2018-07-12T08:00:11.464Z,97041.37
2018-07-12T08:01:24.303Z,97043.98
2018-07-12T08:02:35.722Z,97038.63
2018-07-12T08:03:47.409Z,97041.98
2018-07-12T08:04:58.818Z,97047.34
2018-07-12T08:06:11.226Z,97040.59
2018-07-12T08:07:22.528Z,97043.20
2018-07-12T08:08:34.458Z,97047.58
2018-07-12T08:09:45.699Z,97049.20
2018-07-12T08:10:57.926Z,97050.77
2018-07-12T08:12:10.608Z,97048.58
2018-07-12T08:13:23.495Z,97041.45
2018-07-12T08:14:29.490Z,97039.27
2018-07-12T08:15:35.558Z,97043.64
2018-07-12T08:16:42.568Z,97044.82
2018-07-12T08:17:48.740Z,97048.99
2018-07-12T08:18:54.882Z,97051.78
2018-07-12T08:20:00.898Z,97048.42
2018-07-12T08:21:12.395Z,97049.06
2018-07-12T08:22:18.654Z,97048.45
2018-07-12T08:23:24.935Z,97049.86
2018-07-12T08:24:31.092Z,97054.95
2018-07-12T08:25:37.404Z,97052.53
2018-07-12T08:26:43.670Z,97051.05
2018-07-12T08:28:01.176Z,97051.33
2018-07-12T08:29:07.495Z,97047.83
2018-07-12T08:30:13.734Z,97046.00
2018-07-12T08:31:19.944Z,97038.06
2018-07-12T08:32:26.259Z,97046.51
2018-07-12T08:33:32.432Z,97035.77
2018-07-12T08:34:38.600Z,97033.14
2018-07-12T08:35:44.759Z,97037.80
2018-07-12T08:36:50.872Z,97042.66
2018-07-12T08:37:57.903Z,97040.11
2018-07-12T08:39:05.830Z,97036.17
2018-07-12T08:40:14.869Z,97039.11
2018-07-12T08:41:20.957Z,97044.37
2018-07-12T08:42:29.030Z,97048.97
2018-07-12T08:43:36.203Z,97043.47
2018-07-12T08:44:42.199Z,97045.06
2018-07-12T08:45:48.369Z,97046.70
2018-07-12T08:46:54.541Z,97045.31
2018-07-12T08:48:00.689Z,97049.28
2018-07-12T08:49:07.580Z,97046.69
2018-07-12T08:50:13.839Z,97042.15
2018-07-12T08:51:20.917Z,97052.67
2018-07-12T08:52:27.837Z,97045.13
2018-07-12T08:53:37.435Z,97042.50
2018-07-12T08:54:43.720Z,97043.31
2018-07-12T08:55:49.977Z,97043.78
2018-07-12T08:56:56.107Z,97041.49
2018-07-12T08:58:03.009Z,97039.59
2018-07-12T08:59:09.225Z,97036.12
2018-07-12T09:00:16.391Z,97040.51
2018-07-12T09:01:23.387Z,97041.98
2018-07-12T09:02:29.781Z,97048.73
2018-07-12T09:03:36.135Z,97043.81
2018-07-12T09:04:42.201Z,97051.08
2018-07-12T09:05:49.697Z,97046.88
2018-07-12T09:06:55.772Z,97042.09
2018-07-12T09:08:01.902Z,97039.91
2018-07-12T09:09:09.633Z,97040.11
2018-07-12T09:10:16.380Z,97041.15
2018-07-12T09:11:22.621Z,97042.80
2018-07-12T09:12:28.755Z,97043.37
2018-07-12T09:13:34.797Z,97047.76
2018-07-12T09:14:41.085Z,97042.22
2018-07-12T09:15:47.742Z,97040.75
2018-07-12T09:16:54.019Z,97038.86
2018-07-12T09:18:02.152Z,97037.48
2018-07-12T09:19:08.415Z,97037.41
2018-07-12T09:20:15.602Z,97038.97
2018-07-12T09:21:23.492Z,97041.17
2018-07-12T09:22:30.772Z,97038.08
2018-07-12T09:23:37.881Z,97040.50
2018-07-12T09:24:44.034Z,97045.88
2018-07-12T09:25:50.140Z,97039.84
2018-07-12T09:26:58.311Z,97045.80
2018-07-12T09:28:05.529Z,97043.73
2018-07-12T09:29:13.501Z,97042.69
2018-07-12T09:30:19.957Z,97037.93
2018-07-12T09:31:26.339Z,97041.01
2018-07-12T09:32:32.607Z,97035.94
2018-07-12T09:33:39.021Z,97039.28
2018-07-12T09:34:45.075Z,97038.45
2018-07-12T09:35:52.418Z,97043.00
2018-07-12T09:36:58.595Z,97044.86
2018-07-12T09:38:13.923Z,97038.36
2018-07-12T09:39:20.159Z,97035.95
2018-07-12T09:40:26.642Z,97036.70
2018-07-12T09:41:32.844Z,97037.70
2018-07-12T09:42:38.988Z,97041.95
2018-07-12T09:43:46.502Z,97039.55
2018-07-12T09:44:52.626Z,97038.75
2018-07-12T09:46:01.334Z,97042.03
2018-07-12T09:47:07.652Z,97039.71
2018-07-12T09:48:13.878Z,97051.51
2018-07-12T09:49:21.115Z,97041.23
2018-07-12T09:50:27.717Z,97046.30
2018-07-12T09:51:34.680Z,97046.38
2018-07-12T09:52:41.707Z,97040.09
2018-07-12T09:53:48.808Z,97043.55
2018-07-12T09:54:55.961Z,97037.33
2018-07-12T09:56:02.319Z,97047.40
2018-07-12T09:57:19.438Z,97045.50
2018-07-12T09:58:30.242Z,97044.70
2018-07-12T09:59:38.476Z,97043.49
2018-07-12T10:00:55.568Z,97046.83
2018-07-12T10:02:09.256Z,97048.77
2018-07-12T10:03:21.666Z,97048.03
2018-07-12T10:04:28.574Z,97047.30
2018-07-12T10:06:38.160Z,97050.36
2018-07-12T10:07:50.733Z,97058.30
2018-07-12T10:09:02.311Z,97059.83
2018-07-12T10:10:09.702Z,97060.86
2018-07-12T10:11:22.885Z,97067.52
2018-07-12T10:12:34.272Z,97063.09
2018-07-12T10:13:47.093Z,97060.73
2018-07-12T10:14:59.406Z,97063.20
2018-07-12T10:16:13.448Z,97055.94
2018-07-12T10:17:25.238Z,97056.86
2018-07-12T10:18:33.101Z,97062.27
2018-07-12T10:19:39.278Z,97050.74
2018-07-12T10:20:48.619Z,97057.06
2018-07-12T10:21:57.414Z,97055.70
2018-07-12T10:23:03.620Z,97056.94
2018-07-12T10:24:11.482Z,97054.05
2018-07-12T10:25:17.717Z,97053.67
2018-07-12T10:26:25.580Z,97056.12
2018-07-12T10:27:32.410Z,97062.73
2018-07-12T10:28:39.258Z,97068.80
2018-07-12T10:29:46.668Z,97056.86
2018-07-12T10:30:54.099Z,97057.95
2018-07-12T10:32:00.317Z,97053.88
2018-07-12T10:33:06.877Z,97056.20
2018-07-12T10:34:13.902Z,97052.23
2018-07-12T10:35:20.998Z,97061.85
2018-07-12T10:36:27.228Z,97060.41
2018-07-12T10:37:33.937Z,97055.48
2018-07-12T10:38:42.037Z,97060.10
2018-07-12T10:39:49.967Z,97055.17
2018-07-12T10:40:56.916Z,97061.39
2018-07-12T10:42:03.234Z,97056.73
2018-07-12T10:43:10.433Z,97054.69
2018-07-12T10:44:16.697Z,97054.66
2018-07-12T10:45:24.420Z,97062.16
2018-07-12T10:46:30.554Z,97049.41
2018-07-12T10:47:37.545Z,97049.89
2018-07-12T10:48:43.691Z,97057.36
2018-07-12T10:49:52.503Z,97052.64
2018-07-12T10:51:00.213Z,97047.14
2018-07-12T10:52:07.507Z,97048.52
2018-07-12T10:53:13.509Z,97055.38
2018-07-12T10:54:20.169Z,97052.44
2018-07-12T10:55:26.523Z,97049.47
2018-07-12T10:56:33.665Z,97047.44
2018-07-12T10:57:40.483Z,97048.83
2018-07-12T10:58:48.627Z,97049.80
2018-07-12T10:59:54.771Z,97051.88
2018-07-12T11:01:00.933Z,97046.16
2018-07-12T11:02:07.070Z,97052.02
2018-07-12T11:03:14.179Z,97053.73
2018-07-12T11:04:21.213Z,97053.31
2018-07-12T11:05:28.287Z,97047.39
2018-07-12T11:06:34.523Z,97050.91
2018-07-12T11:07:40.799Z,97053.97
2018-07-12T11:08:47.619Z,97050.52
2018-07-12T11:09:54.629Z,97040.42
2018-07-12T11:11:00.825Z,97046.23
2018-07-12T11:12:07.039Z,97047.23
2018-07-12T11:13:19.356Z,97046.52
2018-07-12T11:14:27.922Z,97043.89
2018-07-12T11:15:34.821Z,97047.44
2018-07-12T11:16:41.050Z,97041.38
2018-07-12T11:17:48.030Z,97048.23
2018-07-12T11:18:54.345Z,97043.17
2018-07-12T11:20:01.680Z,97043.97
2018-07-12T11:21:07.844Z,97043.97
2018-07-12T11:22:14.783Z,97038.63
2018-07-12T11:23:21.790Z,97035.31
2018-07-12T11:24:30.599Z,97037.94
2018-07-12T11:25:37.769Z,97040.14
2018-07-12T11:26:44.937Z,97031.81
2018-07-12T11:27:52.485Z,97036.08
2018-07-12T11:28:58.769Z,97036.36
2018-07-12T11:30:04.855Z,97038.64
2018-07-12T11:31:11.092Z,97034.76
2018-07-12T11:32:20.811Z,97036.45
2018-07-12T11:33:38.788Z,97038.25
2018-07-12T11:34:47.145Z,97036.45
2018-07-12T11:35:54.179Z,97034.27
2018-07-12T11:37:00.500Z,97040.67
2018-07-12T11:38:06.785Z,97036.13
2018-07-12T11:39:13.797Z,97037.50
2018-07-12T11:40:20.827Z,97034.53
2018-07-12T11:41:27.025Z,97036.56
2018-07-12T11:42:34.117Z,97037.02
2018-07-12T11:43:40.335Z,97035.27
2018-07-12T11:44:46.757Z,97036.56
2018-07-12T11:45:54.888Z,97033.87
2018-07-12T11:47:01.978Z,97028.52
2018-07-12T11:48:09.623Z,97033.35
2018-07-12T11:49:15.869Z,97036.09
2018-07-12T11:50:22.344Z,97032.31
2018-07-12T11:51:28.657Z,97031.98
2018-07-12T11:52:34.982Z,97029.33
2018-07-12T11:53:41.589Z,97031.02
2018-07-12T11:54:48.281Z,97028.41
2018-07-12T11:55:54.647Z,97030.99
2018-07-12T11:57:00.933Z,97025.24
2018-07-12T11:58:07.354Z,97028.64
2018-07-12T11:59:13.603Z,97027.73
2018-07-12T12:00:20.660Z,97030.67
2018-07-12T12:01:27.628Z,97029.30
2018-07-12T12:02:33.722Z,97029.11
2018-07-12T12:03:39.821Z,97024.76
2018-07-12T12:04:47.502Z,97026.70
2018-07-12T12:05:54.301Z,97028.22
2018-07-12T12:07:00.932Z,97022.61
2018-07-12T12:08:08.118Z,97028.45
2018-07-12T12:09:14.437Z,97026.64
2018-07-12T12:10:20.545Z,97025.84
2018-07-12T12:11:26.666Z,97023.47
2018-07-12T12:12:33.704Z,97023.58
2018-07-12T12:13:40.728Z,97026.04
2018-07-12T12:14:48.791Z,97023.44
2018-07-12T12:15:55.667Z,97021.75
2018-07-12T12:17:01.824Z,97029.55
2018-07-12T12:18:10.108Z,97019.29
2018-07-12T12:19:17.078Z,97027.06
2018-07-12T12:20:24.054Z,97023.09
2018-07-12T12:21:30.346Z,97028.80
2018-07-12T12:22:37.982Z,97022.72
2018-07-12T12:23:44.100Z,97025.69
2018-07-12T12:24:51.799Z,97023.61
2018-07-12T12:25:58.881Z,97021.75
2018-07-12T12:27:09.003Z,97014.55
2018-07-12T12:28:17.591Z,97020.04
2018-07-12T12:29:24.610Z,97015.23
2018-07-12T12:30:31.507Z,97020.29
2018-07-12T12:31:37.924Z,97024.09
2018-07-12T12:32:43.890Z,97013.63
2018-07-12T12:33:52.073Z,97018.45
2018-07-12T12:34:59.121Z,97019.36
2018-07-12T12:36:08.520Z,97017.56
2018-07-12T12:37:14.911Z,97021.91
2018-07-12T12:38:21.142Z,97017.42
2018-07-12T12:39:29.051Z,97014.33
2018-07-12T12:40:36.675Z,97021.39
2018-07-12T12:41:43.079Z,97025.51
2018-07-12T12:42:50.887Z,97019.31
2018-07-12T12:43:58.656Z,97028.20
2018-07-12T12:45:04.940Z,97027.86
2018-07-12T12:46:12.524Z,97031.41
2018-07-12T12:47:21.301Z,97026.15
2018-07-12T12:48:27.550Z,97031.03
2018-07-12T12:49:33.770Z,97023.17
2018-07-12T12:50:39.896Z,97019.72
2018-07-12T12:51:47.643Z,97024.49
2018-07-12T12:52:55.194Z,97024.01
2018-07-12T12:54:01.422Z,97017.81
2018-07-12T12:55:08.508Z,97016.06
2018-07-12T12:56:14.970Z,97012.75
2018-07-12T12:57:23.580Z,97015.95
2018-07-12T12:58:31.338Z,97019.70
2018-07-12T12:59:38.589Z,97012.98
2018-07-12T13:00:44.769Z,97014.78
2018-07-12T13:01:51.452Z,97004.83
2018-07-12T13:02:58.459Z,97011.55
2018-07-12T13:04:05.454Z,97004.11
2018-07-12T13:05:11.581Z,97006.05
2018-07-12T13:06:19.864Z,97008.57
2018-07-12T13:07:26.072Z,97007.12
2018-07-12T13:08:34.826Z,97014.34
2018-07-12T13:09:41.109Z,97009.58
2018-07-12T13:10:48.805Z,97005.94
2018-07-12T13:11:55.871Z,97010.55
2018-07-12T13:13:02.635Z,97011.05
2018-07-12T13:14:08.865Z,97013.71
2018-07-12T13:15:16.793Z,97007.91
2018-07-12T13:16:23.618Z,97011.13
2018-07-12T13:17:29.906Z,97015.05
2018-07-12T13:18:36.138Z,97009.56
2018-07-12T13:19:46.567Z,97007.58
2018-07-12T13:20:52.827Z,97012.30
2018-07-12T13:21:58.913Z,97011.50
2018-07-12T13:23:05.323Z,97008.90
2018-07-12T13:24:11.617Z,97012.55
2018-07-12T13:25:17.956Z,97016.44
2018-07-12T13:26:24.286Z,97010.95
2018-07-12T13:27:30.623Z,97006.63
2018-07-12T13:28:36.881Z,97009.95
2018-07-12T13:29:44.716Z,97007.55
2018-07-12T13:30:51.272Z,97011.66
2018-07-12T13:31:58.189Z,97011.23
2018-07-12T13:33:04.590Z,97007.34
2018-07-12T13:34:11.762Z,97014.77
2018-07-12T13:35:21.733Z,97011.23
2018-07-12T13:36:30.891Z,97005.17
2018-07-12T13:37:37.185Z,97008.72
2018-07-12T13:38:43.547Z,97005.03
2018-07-12T13:39:51.768Z,97003.09
2018-07-12T13:40:58.134Z,97005.41
2018-07-12T13:42:04.434Z,97005.19
2018-07-12T13:43:10.740Z,97003.86
2018-07-12T13:44:26.884Z,97006.05
2018-07-12T13:45:33.161Z,97010.20
2018-07-12T13:46:41.126Z,97003.83
2018-07-12T13:47:48.142Z,97002.83
2018-07-12T13:48:55.065Z,97003.53
2018-07-12T13:50:01.865Z,97007.17
2018-07-12T13:51:10.876Z,97008.91
2018-07-12T13:52:18.238Z,97009.05
2018-07-12T13:53:25.897Z,97010.19
2018-07-12T13:54:33.294Z,97018.41
2018-07-12T13:55:39.601Z,97006.88
2018-07-12T13:56:47.724Z,97008.25
2018-07-12T13:57:54.041Z,97009.62
2018-07-12T13:59:01.162Z,97013.16
2018-07-12T14:00:08.380Z,97015.30
2018-07-12T14:01:14.564Z,97009.62
2018-07-12T14:02:20.762Z,97009.16
2018-07-12T14:03:26.992Z,97010.09
2018-07-12T14:04:33.416Z,97003.00
2018-07-12T14:05:41.392Z,97011.23
2018-07-12T14:06:48.432Z,97012.40
2018-07-12T14:07:54.590Z,97016.71
2018-07-12T14:09:02.313Z,97011.03
2018-07-12T14:10:08.575Z,97013.77
2018-07-12T14:11:15.482Z,97011.03
2018-07-12T14:12:22.444Z,97009.66
2018-07-12T14:13:29.933Z,97006.11
2018-07-12T14:14:37.079Z,97008.28
2018-07-12T14:15:44.153Z,97011.46
2018-07-12T14:16:50.428Z,97010.09
2018-07-12T14:17:58.788Z,97007.78
2018-07-12T14:19:06.688Z,97007.45
2018-07-12T14:20:13.278Z,97008.45
2018-07-12T14:21:19.476Z,97008.25
2018-07-12T14:22:26.139Z,97006.88
2018-07-12T14:23:34.573Z,97008.36
2018-07-12T14:24:41.475Z,97006.22
2018-07-12T14:25:47.609Z,97006.64
2018-07-12T14:26:53.693Z,97005.61
2018-07-12T14:28:01.911Z,97006.88
2018-07-12T14:29:08.245Z,97005.27
2018-07-12T14:30:14.524Z,97002.30
2018-07-12T14:31:20.808Z,97015.10
2018-07-12T14:32:27.053Z,97010.99
2018-07-12T14:33:33.242Z,97006.88
2018-07-12T14:34:39.540Z,97005.94
2018-07-12T14:35:46.490Z,97009.12
2018-07-12T14:36:52.678Z,97010.72
2018-07-12T14:37:59.686Z,97012.32
2018-07-12T14:39:07.496Z,97008.07
2018-07-12T14:40:13.932Z,97009.44
2018-07-12T14:41:21.768Z,97009.44
2018-07-12T14:42:29.208Z,97017.44
2018-07-12T14:43:36.410Z,97012.89
2018-07-12T14:44:42.736Z,97009.12
2018-07-12T14:45:48.988Z,97006.37
2018-07-12T14:46:57.689Z,97005.00
2018-07-12T14:48:06.066Z,97008.34
2018-07-12T14:49:14.760Z,97000.69
2018-07-12T14:50:20.932Z,97002.06
2018-07-12T14:51:27.324Z,97011.99
2018-07-12T14:52:34.366Z,97000.23
2018-07-12T14:53:41.275Z,97000.46
2018-07-12T14:54:48.518Z,97003.43
2018-07-12T14:55:54.795Z,96996.34
2018-07-12T14:57:02.307Z,97003.43
2018-07-12T14:58:09.879Z,96992.47
2018-07-12T14:59:17.440Z,97000.33
2018-07-12T15:00:24.047Z,96994.27
2018-07-12T15:01:30.274Z,96998.61
2018-07-12T15:02:36.569Z,96999.41
2018-07-12T15:03:42.757Z,96997.24
2018-07-12T15:04:48.966Z,96999.75
2018-07-12T15:05:55.872Z,96995.07
2018-07-12T15:07:03.797Z,96995.64
2018-07-12T15:08:10.166Z,96998.38
2018-07-12T15:09:16.487Z,96997.58
2018-07-12T15:10:22.643Z,96994.04
2018-07-12T15:11:29.418Z,96997.02
2018-07-12T15:12:36.031Z,96995.30
2018-07-12T15:13:42.346Z,96994.27
2018-07-12T15:14:50.579Z,96996.11
2018-07-12T15:15:56.791Z,96998.84
2018-07-12T15:17:03.380Z,96994.27
2018-07-12T15:18:10.626Z,96998.15
2018-07-12T15:19:16.818Z,96999.75
2018-07-12T15:20:23.820Z,96989.36
2018-07-12T15:21:30.033Z,96999.52
2018-07-12T15:22:37.345Z,96992.91
2018-07-12T15:23:43.350Z,96998.15
2018-07-12T15:24:49.553Z,96992.67
2018-07-12T15:25:56.900Z,96994.04
2018-07-12T15:27:03.391Z,96993.84
2018-07-12T15:28:10.891Z,96997.95
2018-07-12T15:29:17.080Z,96995.55
2018-07-12T15:30:29.821Z,96994.74
2018-07-12T15:31:36.123Z,96997.28
2018-07-12T15:32:42.322Z,96988.59
2018-07-12T15:33:48.540Z,96991.34
2018-07-12T15:34:56.918Z,96998.42
2018-07-12T15:36:04.608Z,96990.20
2018-07-12T15:37:12.248Z,96991.34
2018-07-12T15:38:18.556Z,96991.00
2018-07-12T15:39:24.790Z,96991.80
2018-07-12T15:40:30.962Z,96991.80
2018-07-12T15:41:38.542Z,96988.83
2018-07-12T15:42:46.787Z,96995.25
2018-07-12T15:43:53.276Z,96988.39
2018-07-12T15:44:59.346Z,96995.02
2018-07-12T15:46:06.914Z,96986.36
2018-07-12T15:47:13.097Z,96993.21
2018-07-12T15:48:20.501Z,96982.25
2018-07-12T15:49:28.540Z,96990.47
2018-07-12T15:50:34.681Z,96989.30
2018-07-12T15:51:40.952Z,96987.93
2018-07-12T15:52:47.065Z,96994.58
2018-07-12T15:53:53.583Z,96985.33
2018-07-12T15:54:59.852Z,96989.20
2018-07-12T15:56:06.200Z,96987.03
2018-07-12T15:57:12.318Z,96989.00
2018-07-12T15:58:18.590Z,96983.86
2018-07-12T15:59:26.254Z,96987.17
2018-07-12T16:00:34.694Z,96991.84
2018-07-12T16:01:41.490Z,96985.59
2018-07-12T16:02:48.525Z,96984.80
2018-07-12T16:03:54.839Z,96983.99
2018-07-12T16:05:03.838Z,96984.80
2018-07-12T16:06:09.940Z,96986.73
2018-07-12T16:07:16.298Z,96982.25
2018-07-12T16:08:22.346Z,96983.63
2018-07-12T16:09:29.273Z,96981.35
2018-07-12T16:10:35.448Z,96980.55
2018-07-12T16:11:43.617Z,96981.69
2018-07-12T16:12:49.926Z,96982.86
2018-07-12T16:13:56.879Z,96982.39
2018-07-12T16:15:03.045Z,96990.05
2018-07-12T16:16:09.070Z,96984.33
2018-07-12T16:17:15.212Z,96982.95
2018-07-12T16:18:21.380Z,96987.07
2018-07-12T16:19:27.630Z,96989.34
2018-07-12T16:20:36.351Z,96983.86
2018-07-12T16:21:42.832Z,96983.86
2018-07-12T16:22:49.251Z,96987.97
2018-07-12T16:23:55.510Z,96981.69
2018-07-12T16:25:01.951Z,96982.73
2018-07-12T16:26:08.482Z,96986.60
2018-07-12T16:27:15.596Z,96983.06
2018-07-12T16:28:22.406Z,96993.45
2018-07-12T16:29:28.905Z,96991.85
2018-07-12T16:30:36.760Z,96987.73
2018-07-12T16:31:43.795Z,96988.20
2018-07-12T16:32:49.938Z,96991.52
2018-07-12T16:33:57.092Z,96990.72
2018-07-12T16:35:04.112Z,96986.60
2018-07-12T16:36:10.954Z,96981.13
2018-07-12T16:37:17.730Z,96988.78
2018-07-12T16:38:26.018Z,96987.97
2018-07-12T16:39:33.198Z,96986.03
2018-07-12T16:40:39.732Z,96983.63
2018-07-12T16:41:49.940Z,96983.63
2018-07-12T16:42:57.899Z,96985.57
2018-07-12T16:44:05.607Z,96980.45
2018-07-12T16:45:14.439Z,96983.53
2018-07-12T16:46:21.478Z,96984.70
2018-07-12T16:47:30.418Z,96975.45
2018-07-12T16:48:38.273Z,96983.09
2018-07-12T16:49:45.021Z,96978.19
2018-07-12T16:50:51.633Z,96976.02
2018-07-12T16:51:58.066Z,96977.95
2018-07-12T16:53:04.426Z,96978.75
2018-07-12T16:54:13.078Z,96980.13
2018-07-12T16:55:22.204Z,96977.75
2018-07-12T16:56:30.000Z,96980.49
2018-07-12T16:57:37.536Z,96978.89
2018-07-12T16:58:43.751Z,96980.03
2018-07-12T16:59:51.296Z,96976.85
2018-07-12T17:00:57.865Z,96982.09
2018-07-12T17:02:04.420Z,96973.67
2018-07-12T17:03:10.870Z,96973.45
2018-07-12T17:04:17.342Z,96974.14
2018-07-12T17:05:25.291Z,96974.48
2018-07-12T17:06:32.945Z,96972.31
2018-07-12T17:07:39.449Z,96970.94
2018-07-12T17:08:47.676Z,96966.63
2018-07-12T17:09:56.240Z,96965.39
2018-07-12T17:11:05.145Z,96975.98
2018-07-12T17:12:11.653Z,96973.95
2018-07-12T17:13:22.269Z,96971.34
2018-07-12T17:14:29.954Z,96978.75
2018-07-12T17:15:36.269Z,96981.95
2018-07-12T17:16:42.891Z,96981.72
2018-07-12T17:17:51.109Z,96985.39
2018-07-12T17:18:59.206Z,96982.42
2018-07-12T17:20:05.491Z,96986.33
2018-07-12T17:21:11.729Z,96988.59
2018-07-12T17:22:18.029Z,96986.79
2018-07-12T17:23:24.087Z,96989.30
2018-07-12T17:24:30.307Z,96993.53
2018-07-12T17:25:36.492Z,96994.67
2018-07-12T17:26:44.270Z,96989.08
2018-07-12T17:27:58.928Z,97000.40
2018-07-12T17:29:05.472Z,96995.23
2018-07-12T17:30:12.211Z,96994.34
2018-07-12T17:31:18.363Z,97001.76
2018-07-12T17:32:24.638Z,96999.36
2018-07-12T17:33:30.703Z,97005.97
2018-07-12T17:34:37.181Z,97007.93
2018-07-12T17:35:43.912Z,97001.98
2018-07-12T17:36:50.302Z,97008.50
2018-07-12T17:37:56.972Z,96999.81
2018-07-12T17:39:03.404Z,97005.29
2018-07-12T17:40:09.760Z,96998.23
2018-07-12T17:41:16.194Z,97006.78
2018-07-12T17:42:22.564Z,97007.92
2018-07-12T17:43:31.102Z,97004.41
2018-07-12T17:44:37.796Z,97009.65
2018-07-12T17:45:44.254Z,97010.78
2018-07-12T17:46:51.042Z,97008.97
2018-07-12T17:47:58.938Z,97013.64
2018-07-12T17:49:05.082Z,97014.21
2018-07-12T17:50:11.671Z,97005.20
2018-07-12T17:51:28.008Z,97003.39
2018-07-12T17:52:34.998Z,97007.63
2018-07-12T17:53:42.192Z,97005.22
2018-07-12T17:54:55.396Z,97006.14
2018-07-12T17:56:02.452Z,96999.86
2018-07-12T17:57:12.089Z,97002.16
2018-07-12T17:58:18.397Z,97002.73
2018-07-12T17:59:28.236Z,97001.69
2018-07-12T18:00:35.773Z,97006.92
2018-07-12T18:01:45.316Z,96998.27
2018-07-12T18:02:53.590Z,97004.11
2018-07-12T18:04:00.274Z,97005.80
2018-07-12T18:05:08.078Z,97003.76
2018-07-12T18:06:16.563Z,97004.69
2018-07-12T18:07:23.876Z,97008.88
2018-07-12T18:08:30.275Z,97010.61
2018-07-12T18:09:36.663Z,97007.64
2018-07-12T18:10:43.222Z,97010.50
2018-07-12T18:11:50.563Z,97012.79
2018-07-12T18:12:56.917Z,97009.22
2018-07-12T18:14:03.083Z,97010.11
2018-07-12T18:15:09.292Z,97009.67
2018-07-12T18:16:17.977Z,97010.59
2018-07-12T18:17:25.143Z,97013.33
2018-07-12T18:18:33.097Z,97009.88
2018-07-12T18:19:39.368Z,97017.88
2018-07-12T18:20:46.181Z,97014.47
2018-07-12T18:21:52.524Z,97018.09
2018-07-12T18:22:58.740Z,97016.52
2018-07-12T18:24:04.943Z,97016.84
2018-07-12T18:25:10.969Z,97015.03
2018-07-12T18:26:17.048Z,97022.20
2018-07-12T18:27:23.393Z,97015.72
2018-07-12T18:28:29.873Z,97019.02
2018-07-12T18:29:38.017Z,97021.52
2018-07-12T18:30:44.436Z,97027.10
2018-07-12T18:31:51.576Z,97023.12
2018-07-12T18:32:57.838Z,97018.33
2018-07-12T18:34:05.723Z,97016.73
2018-07-12T18:35:11.940Z,97018.42
2018-07-12T18:36:18.294Z,97021.52
2018-07-12T18:37:24.633Z,97015.56
2018-07-12T18:38:32.477Z,97019.22
2018-07-12T18:39:38.831Z,97020.91